Time;durP1;ratioP1;P1;durP2;ratioP2;P2;SDS_P1;SDS_P2;PMS_P1;PMS_P2;Temp;Humidity;BMP_temperature;BMP_pressure;BME280_temperature;BME280_humidity;BME280_pressure;Samples;Min_cycle;Max_cycle;Signal;HPM_P1;HPM_P2
2022/05/20 04:32:23;;;;;;;;;2.75;2.75;;;;;22.17;45.14;101432.56;3333331;25;46750;-73
2022/05/20 04:34:49;;;;;;;;;4.75;4.75;;;;;22.10;44.94;101414.97;5097974;27;46196;-72
2022/05/20 04:37:15;;;;;;;;;7.00;5.75;;;;;22.19;45.17;101432.44;5096829;27;45380;-72
2022/05/20 04:39:41;;;;;;;;;4.00;4.00;;;;;22.20;45.23;101431.44;5075837;28;45325;-72
2022/05/20 04:47:51;;;;;;;;;4.50;4.50;;;;;22.26;45.69;101431.78;5096811;27;45397;-73
2022/05/20 04:50:16;;;;;;;;;3.00;3.00;;;;;22.27;45.50;101435.41;5096476;27;46082;-72
2022/05/20 04:52:42;;;;;;;;;3.00;3.00;;;;;22.34;46.09;101449.41;5097239;27;45363;-73
2022/05/20 04:55:08;;;;;;;;;5.00;3.00;;;;;22.31;45.91;101445.06;5096656;27;45341;-71
2022/05/20 04:57:43;;;;;;;;;3.00;3.00;;;;;22.41;45.81;101453.34;5096125;27;45300;-71
2022/05/20 05:00:22;;;;;;;;;3.25;1.75;;;;;22.41;45.46;101451.50;5097026;27;45415;-72
2022/05/20 05:02:48;;;;;;;;;3.00;2.50;;;;;22.46;46.16;101446.50;5096386;27;45177;-71
2022/05/20 05:05:16;;;;;;;;;2.00;2.00;;;;;22.50;45.46;101455.31;5077522;27;46015;-72
2022/05/20 05:07:45;;;;;;;;;3.00;2.00;;;;;22.49;46.03;101456.31;5096423;27;45465;-71
2022/05/20 05:10:12;;;;;;;;;1.00;1.00;;;;;22.48;45.63;101449.09;5099873;27;45303;-72
2022/05/20 05:12:37;;;;;;;;;0.75;0.75;;;;;22.50;46.02;101447.97;5096463;27;45558;-74
2022/05/20 05:15:03;;;;;;;;;5.25;2.75;;;;;22.55;45.69;101462.09;5096112;27;45318;-73
2022/05/20 05:20:22;;;;;;;;;2.00;2.00;;;;;22.46;46.21;101443.75;5096684;27;45341;-71
2022/05/20 05:22:52;;;;;;;;;2.00;2.00;;;;;22.49;46.16;101446.25;5096455;27;45361;-71
2022/05/20 05:25:20;;;;;;;;;1.25;1.25;;;;;22.53;46.07;101438.66;5096441;27;45501;-68
2022/05/20 05:27:46;;;;;;;;;3.25;1.50;;;;;22.50;46.43;101445.25;5095918;27;45511;-72
2022/05/20 05:30:12;;;;;;;;;2.50;2.50;;;;;22.51;46.48;101437.91;5096360;27;45508;-70
2022/05/20 05:32:39;;;;;;;;;2.75;2.75;;;;;22.54;46.55;101432.19;5095926;27;45435;-68
2022/05/20 05:35:09;;;;;;;;;5.25;3.00;;;;;22.51;45.93;101427.84;5095898;27;46370;-71
2022/05/20 05:37:36;;;;;;;;;2.00;2.00;;;;;22.54;46.36;101434.94;5096077;27;45504;-72
2022/05/20 05:40:03;;;;;;;;;3.25;3.25;;;;;22.53;46.33;101434.06;5074384;28;45276;-70
2022/05/20 05:42:29;;;;;;;;;3.00;3.00;;;;;22.45;46.95;101408.38;5093443;27;45342;-70
2022/05/20 05:44:55;;;;;;;;;3.75;2.25;;;;;22.51;46.75;101414.19;5095950;27;45361;-70
2022/05/20 05:47:21;;;;;;;;;2.25;2.25;;;;;22.62;46.85;101410.56;5074075;28;45756;-70
2022/05/20 05:49:46;;;;;;;;;2.75;2.50;;;;;22.57;46.76;101399.13;5087241;27;45403;-69
2022/05/20 05:52:12;;;;;;;;;3.00;2.00;;;;;22.59;46.64;101383.47;5095914;27;45645;-69
2022/05/20 05:54:37;;;;;;;;;3.00;3.00;;;;;22.60;47.17;101391.53;5095701;27;46293;-72
2022/05/20 05:57:03;;;;;;;;;4.00;4.00;;;;;22.63;47.39;101406.78;5095229;27;45453;-72
2022/05/20 05:59:31;;;;;;;;;1.75;1.75;;;;;22.51;47.80;101413.31;5095154;27;45486;-71
2022/05/20 06:02:01;;;;;;;;;3.00;3.00;;;;;22.38;48.45;101418.94;5095834;27;45287;-73
2022/05/20 06:04:27;;;;;;;;;5.75;3.50;;;;;22.32;48.65;101429.53;5095519;27;46149;-73
2022/05/20 06:06:53;;;;;;;;;1.50;1.25;;;;;22.10;49.38;101419.56;5086933;27;45549;-72
2022/05/20 06:09:18;;;;;;;;;6.00;6.00;;;;;22.06;49.79;101428.97;5095522;27;45350;-71
2022/05/20 06:11:44;;;;;;;;;4.75;4.75;;;;;21.97;50.65;101447.00;5094483;27;46762;-69
2022/05/20 06:14:09;;;;;;;;;5.00;5.00;;;;;21.79;52.35;101418.44;5095095;27;46433;-71
2022/05/20 06:16:35;;;;;;;;;4.75;4.75;;;;;21.81;52.48;101421.91;5095026;27;45455;-71
2022/05/20 06:19:00;;;;;;;;;4.25;4.25;;;;;21.77;53.51;101418.59;5095189;27;45645;-70
2022/05/20 06:21:26;;;;;;;;;3.25;3.25;;;;;21.83;53.15;101400.84;5095092;27;45468;-71
2022/05/20 06:23:52;;;;;;;;;4.50;4.50;;;;;21.83;54.27;101407.16;5095188;27;45426;-71
2022/05/20 06:26:17;;;;;;;;;3.75;3.75;;;;;21.74;54.17;101363.38;5094779;27;45287;-69
2022/05/20 06:28:43;;;;;;;;;4.00;4.00;;;;;21.78;54.75;101310.25;5095026;27;45370;-70
2022/05/20 06:31:08;;;;;;;;;7.25;5.00;;;;;21.78;54.30;101316.59;5094973;27;45307;-70
2022/05/20 06:33:34;;;;;;;;;3.50;3.50;;;;;21.69;54.93;101330.16;5094822;27;46185;-71
2022/05/20 06:41:27;;;;;;;;;6.25;6.25;;;;;21.37;55.69;101390.06;5095104;27;45510;-73
2022/05/20 06:43:53;;;;;;;;;4.00;4.00;;;;;21.14;56.52;101375.53;5094265;27;46166;-72
2022/05/20 06:46:18;;;;;;;;;4.00;1.00;;;;;21.09;56.65;101367.75;5095009;27;45342;-73
2022/05/20 06:48:50;;;;;;;;;4.25;3.00;;;;;21.13;57.18;101349.25;5093440;27;45512;-70
2022/05/20 06:51:18;;;;;;;;;8.75;3.75;;;;;21.14;57.11;101318.28;5095009;27;45352;-71
2022/05/20 06:53:45;;;;;;;;;3.75;2.75;;;;;21.23;56.92;101249.38;5094652;27;45541;-70
2022/05/20 06:56:12;;;;;;;;;4.75;4.75;;;;;21.31;56.65;101246.00;5094344;27;45256;-73
2022/05/20 06:58:38;;;;;;;;;4.00;4.00;;;;;21.40;56.69;101186.13;5094379;27;45411;-69
2022/05/20 07:01:04;;;;;;;;;7.00;5.00;;;;;21.48;56.40;101172.69;5094295;27;45430;-69
2022/05/20 07:03:29;;;;;;;;;4.00;4.00;;;;;21.44;56.17;101153.97;5094191;27;45496;-73
2022/05/20 07:05:55;;;;;;;;;5.25;5.25;;;;;21.58;56.51;101161.88;5087406;27;45545;-69
2022/05/20 07:08:21;;;;;;;;;3.50;2.25;;;;;21.59;56.07;101152.69;5091485;27;45395;-68
2022/05/20 07:10:47;;;;;;;;;6.00;4.50;;;;;21.62;57.16;101137.88;5090573;27;45682;-69
2022/05/20 07:13:12;;;;;;;;;5.00;3.75;;;;;21.73;56.37;101159.69;5091980;27;45497;-67
2022/05/20 07:15:38;;;;;;;;;5.00;5.00;;;;;21.77;56.66;101169.34;5075171;28;45371;-66
2022/05/20 07:18:04;;;;;;;;;5.00;5.00;;;;;21.85;56.94;101180.47;5094593;27;45337;-68
2022/05/20 07:20:29;;;;;;;;;8.00;6.25;;;;;21.91;56.40;101179.94;5095917;27;45571;-67
2022/05/20 07:22:54;;;;;;;;;7.50;5.25;;;;;21.88;56.55;101196.56;5097844;27;45859;-68
2022/05/20 07:25:20;;;;;;;;;6.25;6.00;;;;;21.84;57.08;101217.81;5097771;27;45269;-68
2022/05/20 07:27:46;;;;;;;;;5.50;5.50;;;;;21.75;57.05;101218.59;5096812;27;45424;-67
2022/05/20 07:30:14;;;;;;;;;4.75;4.75;;;;;21.77;57.58;101202.97;5097532;27;45423;-68
2022/05/20 07:32:39;;;;;;;;;4.25;4.25;;;;;21.80;57.20;101199.09;5097362;27;46718;-68
2022/05/20 07:35:05;;;;;;;;;7.25;6.25;;;;;21.88;57.59;101219.28;5097372;27;45337;-70
2022/05/20 07:37:30;;;;;;;;;7.25;7.25;;;;;21.97;57.00;101231.28;5096986;27;45318;-67
2022/05/20 07:39:56;;;;;;;;;7.25;6.75;;;;;21.90;57.49;101230.06;5096744;27;45397;-69
2022/05/20 07:42:22;;;;;;;;;10.75;6.25;;;;;21.79;57.30;101235.56;5095783;27;46040;-68
2022/05/20 07:44:49;;;;;;;;;9.50;9.50;;;;;21.74;58.38;101273.31;5097392;27;45249;-70
2022/05/20 07:47:14;;;;;;;;;6.50;5.25;;;;;21.61;59.06;101298.00;5096873;27;45351;-67
2022/05/20 07:49:40;;;;;;;;;5.75;5.75;;;;;21.42;59.20;101278.75;5095735;27;45802;-70
2022/05/20 07:52:10;;;;;;;;;6.75;5.00;;;;;21.41;59.56;101305.16;5096466;27;45417;-69
2022/05/20 07:54:40;;;;;;;;;6.00;6.00;;;;;21.31;60.63;101327.84;5087686;27;45404;-68
2022/05/20 07:57:13;;;;;;;;;9.00;9.00;;;;;21.23;61.50;101347.56;5081757;27;45457;-71
2022/05/20 07:59:52;;;;;;;;;7.50;7.50;;;;;21.08;62.04;101324.22;5075672;28;45323;-76
2022/05/20 08:02:22;;;;;;;;;11.75;8.75;;;;;20.98;62.52;101310.47;5084650;27;46583;-75
2022/05/20 08:04:55;;;;;;;;;7.50;7.50;;;;;20.99;63.35;101301.31;5097259;27;45361;-76
2022/05/20 08:07:28;;;;;;;;;11.00;7.50;;;;;21.02;64.46;101311.06;5097352;27;45446;-76
2022/05/20 08:09:54;;;;;;;;;7.75;7.75;;;;;20.81;63.87;101258.28;5078187;27;46954;-78
2022/05/20 08:12:20;;;;;;;;;9.00;7.75;;;;;20.96;63.99;101277.00;5078319;27;46182;-76
2022/05/20 08:14:47;;;;;;;;;9.25;7.25;;;;;20.99;63.75;101284.06;5095887;27;45407;-74
2022/05/20 08:17:12;;;;;;;;;8.50;8.50;;;;;21.02;63.02;101251.97;5097210;27;45357;-77
2022/05/20 08:19:38;;;;;;;;;1.00;1.00;;;;;21.06;64.15;101271.69;5097044;27;45444;-76
2022/05/20 08:22:04;;;;;;;;;6.25;6.25;;;;;21.01;63.74;101290.28;5075057;27;47192;-77
2022/05/20 08:24:30;;;;;;;;;9.00;8.00;;;;;21.04;63.41;101246.38;5093113;27;45442;-75
2022/05/20 08:26:56;;;;;;;;;10.00;8.25;;;;;21.14;63.91;101255.56;5096671;27;45445;-77
2022/05/20 08:29:21;;;;;;;;;8.00;8.00;;;;;21.03;63.55;101240.06;5097240;27;45410;-78
2022/05/20 08:31:46;;;;;;;;;6.75;6.50;;;;;21.18;64.23;101292.50;5096860;27;45988;-77
2022/05/20 08:34:13;;;;;;;;;10.75;9.00;;;;;21.13;64.26;101243.78;5097765;27;45457;-79
2022/05/20 08:36:40;;;;;;;;;9.50;8.00;;;;;21.23;64.04;101259.41;5075748;28;45508;-79
2022/05/20 08:39:10;;;;;;;;;7.50;7.50;;;;;21.25;64.69;101329.22;5093709;27;46188;-76
2022/05/20 08:41:40;;;;;;;;;9.75;9.75;;;;;21.13;64.66;101361.03;5097073;27;45453;-74
2022/05/20 08:44:11;;;;;;;;;11.00;11.00;;;;;21.03;65.41;101400.03;5096564;27;45454;-79
2022/05/20 08:46:38;;;;;;;;;12.50;11.75;;;;;20.92;66.14;101444.53;5095304;27;45487;-79
2022/05/20 08:49:03;;;;;;;;;12.25;11.75;;;;;20.66;66.38;101429.34;5078864;27;45787;-78
2022/05/20 08:51:33;;;;;;;;;14.25;14.25;;;;;20.59;66.50;101330.84;5096842;27;45962;-76
2022/05/20 08:54:00;;;;;;;;;12.75;10.75;;;;;20.65;67.67;101343.13;5091215;27;45532;-78
2022/05/20 08:56:26;;;;;;;;;12.75;9.50;;;;;20.82;67.18;101293.59;5076913;27;45520;-76
2022/05/20 08:59:03;;;;;;;;;13.00;9.75;;;;;21.02;68.67;101311.06;5096800;27;45441;-75
2022/05/20 09:01:37;;;;;;;;;12.50;12.50;;;;;21.05;66.87;101286.28;5096488;27;45998;-77
2022/05/20 09:04:06;;;;;;;;;12.00;12.00;;;;;21.19;66.87;101277.88;5096615;27;45452;-75
2022/05/20 09:06:35;;;;;;;;;12.50;12.50;;;;;21.28;67.87;101285.31;5096489;27;45462;-78
2022/05/20 09:09:12;;;;;;;;;10.25;10.25;;;;;21.48;67.40;101310.97;5096769;27;45663;-76
2022/05/20 09:11:40;;;;;;;;;13.75;11.75;;;;;21.56;67.51;101292.09;5096508;27;46069;-77
2022/05/20 09:17:23;;;;;;;;;13.75;13.75;;;;;21.88;66.38;101275.72;5096224;27;45336;-73
2022/05/20 09:20:01;;;;;;;;;14.75;13.50;;;;;22.03;66.08;101282.66;5096238;27;45415;-75
2022/05/20 09:22:33;;;;;;;;;11.00;11.00;;;;;22.21;66.49;101280.19;5096279;27;46238;-75
2022/05/20 09:24:59;;;;;;;;;14.00;12.75;;;;;22.32;64.52;101261.03;5096468;27;45443;-76
2022/05/20 09:27:32;;;;;;;;;13.50;12.50;;;;;22.46;64.34;101251.63;5096054;27;45421;-74
2022/05/20 09:30:05;;;;;;;;;11.75;11.75;;;;;22.58;63.44;101245.09;5095955;27;45536;-74
2022/05/20 09:32:38;;;;;;;;;12.00;12.00;;;;;22.63;64.91;101261.94;5096369;27;46227;-76
2022/05/20 09:35:13;;;;;;;;;16.50;15.50;;;;;22.56;63.42;101332.66;5096278;27;45484;-75
2022/05/20 09:37:39;;;;;;;;;15.50;13.50;;;;;22.27;65.12;101446.31;5078324;27;45490;-77
2022/05/20 09:40:32;;;;;;;;;15.50;14.00;;;;;21.90;66.35;101479.38;5096391;27;45314;-80
2022/05/20 09:43:02;;;;;;;;;14.00;13.25;;;;;21.49;67.29;101359.94;5089853;27;46658;-75
2022/05/20 09:45:28;;;;;;;;;22.50;17.50;;;;;21.35;67.70;101182.88;5094916;27;45452;-77
2022/05/20 09:47:57;;;;;;;;;17.25;13.75;;;;;21.44;69.09;101130.28;5096363;27;45423;-77
2022/05/20 09:50:31;;;;;;;;;18.50;17.75;;;;;21.67;68.54;101171.13;5060831;27;45497;-76
2022/05/20 09:53:06;;;;;;;;;21.00;17.75;;;;;21.82;68.82;101252.56;5096125;27;46415;-77
2022/05/20 09:55:44;;;;;;;;;21.00;19.50;;;;;21.81;68.10;101225.38;5088811;27;45539;-78
2022/05/20 09:58:27;;;;;;;;;20.00;20.00;;;;;22.08;68.29;101205.81;5088728;27;45547;-83
2022/05/20 10:01:15;;;;;;;;;19.25;17.75;;;;;22.14;66.90;101153.38;5095004;27;45531;-72
2022/05/20 10:03:46;;;;;;;;;18.00;15.50;;;;;22.41;66.45;101158.28;5095313;27;45384;-75
2022/05/20 10:06:12;;;;;;;;;16.00;16.00;;;;;22.61;66.99;101176.50;5095198;27;45406;-75
2022/05/20 10:08:55;;;;;;;;;21.00;20.25;;;;;22.80;66.66;101192.13;5095691;27;46223;-75
2022/05/20 10:11:28;;;;;;;;;17.25;16.25;;;;;22.83;65.70;101183.66;5089190;27;45420;-74
2022/05/20 10:14:21;;;;;;;;;7.25;6.75;;;;;22.79;64.61;101185.81;5094319;27;46102;-74
2022/05/20 10:17:07;;;;;;;;;17.75;13.75;;;;;22.90;64.89;101223.97;5095472;27;45506;-73
2022/05/20 10:19:54;;;;;;;;;17.00;17.00;;;;;22.92;64.40;101223.84;5095374;27;45484;-70
2022/05/20 10:22:46;;;;;;;;;23.50;19.00;;;;;22.94;64.29;101238.25;5095426;27;45282;-76
2022/05/20 10:25:29;;;;;;;;;28.00;25.25;;;;;22.82;64.27;101256.59;5077823;27;47202;-79
2022/05/20 10:32:34;;;;;;;;;23.50;21.25;;;;;22.60;64.36;101233.03;5077459;27;45660;-79
2022/05/20 10:33:59;;;;;;;;;21.25;21.25;;;;;22.74;64.37;101223.63;5097610;27;45393;-78
2022/05/20 10:36:47;;;;;;;;;15.25;15.25;;;;;22.82;65.00;101201.94;5095708;27;45643;-74
2022/05/20 10:39:33;;;;;;;;;25.50;24.00;;;;;23.02;63.85;101208.34;5096095;27;45332;-75
2022/05/20 10:42:11;;;;;;;;;21.25;20.50;;;;;23.18;63.72;101205.94;5076724;27;45313;-72
2022/05/20 10:50:35;;;;;;;;;18.25;18.25;;;;;23.66;63.12;101189.59;5095034;27;45271;-76
2022/05/20 10:53:31;;;;;;;;;28.75;27.25;;;;;23.64;62.36;101177.94;5076851;27;45384;-75
2022/05/20 10:55:59;;;;;;;;;25.75;24.50;;;;;23.59;63.71;101201.28;5076476;27;46774;-77
2022/05/20 10:58:43;;;;;;;;;25.50;25.50;;;;;23.56;63.46;101205.16;5094980;27;46199;-78
2022/05/20 11:01:31;;;;;;;;;28.25;26.75;;;;;23.46;63.51;101198.78;5086646;27;46658;-76
2022/05/20 11:04:12;;;;;;;;;27.00;27.00;;;;;23.37;64.20;101208.72;5087105;27;45615;-77
2022/05/20 11:06:37;;;;;;;;;28.75;28.00;;;;;23.43;64.06;101204.53;5091784;27;45487;-79
2022/05/20 11:09:16;;;;;;;;;29.25;27.25;;;;;23.43;65.12;101190.84;5094827;27;45323;-78
2022/05/20 11:11:57;;;;;;;;;21.25;21.25;;;;;23.76;64.42;101222.47;5096079;27;45210;-78
2022/05/20 11:14:44;;;;;;;;;31.00;28.00;;;;;23.96;64.09;101239.75;5095166;27;45423;-78
2022/05/20 11:17:56;;;;;;;;;28.75;23.75;;;;;23.89;64.59;101255.91;5095032;27;45315;-77
2022/05/20 11:20:46;;;;;;;;;26.00;24.75;;;;;23.72;65.15;101254.75;5092961;27;46379;-77
2022/05/20 11:23:33;;;;;;;;;27.25;26.00;;;;;23.70;66.15;101258.63;5094663;27;45283;-77
2022/05/20 11:26:21;;;;;;;;;22.50;20.75;;;;;23.77;65.81;101244.22;5094477;27;45388;-79
2022/05/20 11:29:04;;;;;;;;;24.75;23.75;;;;;24.14;65.64;101258.06;5094352;27;45331;-76
2022/05/20 11:31:53;;;;;;;;;22.75;21.75;;;;;24.46;64.82;101256.91;5094195;27;46021;-78
2022/05/20 11:34:50;;;;;;;;;21.75;19.50;;;;;24.75;63.90;101256.84;5093729;27;45368;-77
2022/05/20 11:37:18;;;;;;;;;22.25;20.75;;;;;24.79;62.43;101245.41;5092973;27;45421;-77
2022/05/20 11:40:13;;;;;;;;;16.75;15.50;;;;;24.73;62.38;101235.03;5094994;27;45297;-78
2022/05/20 11:42:41;;;;;;;;;25.50;21.00;;;;;24.77;62.38;101257.53;5094094;27;46088;-76
2022/05/20 11:45:23;;;;;;;;;14.25;13.00;;;;;24.76;62.09;101245.69;5094928;27;45420;-79
2022/05/20 11:48:27;;;;;;;;;18.75;15.75;;;;;25.01;61.47;101233.19;5094685;27;45552;-76
2022/05/20 11:51:17;;;;;;;;;19.00;16.00;;;;;25.23;59.58;101216.34;5062366;27;45686;-76
2022/05/20 11:54:08;;;;;;;;;15.50;15.25;;;;;25.47;58.16;101226.72;5082048;27;45524;-76
2022/05/20 11:56:48;;;;;;;;;14.50;13.00;;;;;25.56;56.82;101205.72;5086455;27;45350;-75
2022/05/20 11:59:20;;;;;;;;;16.50;15.75;;;;;25.63;54.21;101195.88;5093458;27;45463;-73
2022/05/20 12:01:51;;;;;;;;;14.25;13.50;;;;;25.65;55.16;101165.50;5096492;27;46275;-80
2022/05/20 12:04:20;;;;;;;;;11.75;11.25;;;;;25.84;54.10;101188.19;5079074;27;46740;-75
2022/05/20 12:06:49;;;;;;;;;11.00;11.00;;;;;25.95;51.50;101200.78;5094908;27;45498;-77
2022/05/20 12:09:35;;;;;;;;;14.75;12.75;;;;;25.92;52.50;101210.22;5097577;27;45547;-76
2022/05/20 12:12:15;;;;;;;;;17.50;11.00;;;;;25.94;50.47;101197.22;5097411;27;45587;-79
2022/05/20 12:15:22;;;;;;;;;10.00;10.00;;;;;25.94;50.80;101196.34;5097135;27;45658;-78
2022/05/20 12:17:50;;;;;;;;;10.50;6.25;;;;;25.96;49.58;101192.38;5067069;27;45496;-81
2022/05/20 12:25:50;;;;;;;;;13.50;11.00;;;;;25.61;51.94;101230.84;5096605;27;45642;-78
2022/05/20 12:28:22;;;;;;;;;11.00;9.00;;;;;25.52;51.96;101213.38;5096991;27;45418;-75
2022/05/20 12:31:04;;;;;;;;;11.00;11.00;;;;;25.41;52.88;101193.56;5096868;27;45350;-77
2022/05/20 12:34:05;;;;;;;;;12.75;12.00;;;;;25.24;53.33;101236.41;5096724;27;45440;-75
2022/05/20 12:36:31;;;;;;;;;11.50;11.50;;;;;25.17;53.58;101227.06;5095579;27;45824;-77
2022/05/20 12:39:12;;;;;;;;;11.00;11.00;;;;;25.14;53.71;101249.31;5076276;27;46391;-76
2022/05/20 12:41:50;;;;;;;;;6.75;6.75;;;;;24.89;54.77;101250.84;5097762;27;45436;-79
2022/05/20 12:44:15;;;;;;;;;10.00;10.00;;;;;24.76;56.00;101253.03;5097183;27;46394;-79
2022/05/20 12:46:56;;;;;;;;;13.00;12.00;;;;;24.62;56.07;101261.75;5098335;27;47012;-75
2022/05/20 12:49:25;;;;;;;;;13.50;12.00;;;;;24.54;56.36;101248.78;5095385;27;45478;-72
2022/05/20 12:51:52;;;;;;;;;12.25;11.50;;;;;24.52;56.80;101251.69;5096319;27;45607;-73
2022/05/20 12:54:26;;;;;;;;;14.25;12.25;;;;;24.47;57.37;101269.59;5095736;27;45480;-74
2022/05/20 12:56:55;;;;;;;;;12.75;10.75;;;;;24.45;58.03;101255.16;5095669;27;45499;-72
2022/05/20 12:59:23;;;;;;;;;12.25;12.25;;;;;24.51;57.91;101271.00;5096832;27;45437;-72
2022/05/20 13:01:57;;;;;;;;;15.25;13.50;;;;;24.50;58.12;101282.97;5096988;27;45328;-74
2022/05/20 13:04:25;;;;;;;;;6.25;4.50;;;;;24.49;58.34;101290.38;5096091;27;45280;-74
2022/05/20 13:06:51;;;;;;;;;13.00;11.00;;;;;24.32;59.83;101309.44;5096579;27;46234;-73
2022/05/20 13:09:27;;;;;;;;;16.00;12.25;;;;;24.19;60.33;101317.91;5095741;27;45389;-75
2022/05/20 13:11:53;;;;;;;;;14.00;9.75;;;;;23.96;60.02;101327.41;5096371;27;45522;-73
2022/05/20 13:14:22;;;;;;;;;8.25;8.25;;;;;23.77;60.32;101326.38;5096194;27;45917;-72
2022/05/20 13:16:50;;;;;;;;;9.75;9.75;;;;;23.58;60.38;101337.25;5096406;27;45427;-74
2022/05/20 13:19:18;;;;;;;;;8.25;8.25;;;;;23.55;60.54;101347.66;5095984;27;45400;-74
2022/05/20 13:21:57;;;;;;;;;6.75;6.75;;;;;23.23;60.52;101317.66;5096428;27;45419;-74
2022/05/20 13:24:28;;;;;;;;;6.00;5.00;;;;;23.23;60.75;101345.88;5096201;27;45389;-73
2022/05/20 13:27:14;;;;;;;;;5.25;5.25;;;;;22.99;61.30;101337.13;5095873;27;46408;-74
2022/05/20 13:29:41;;;;;;;;;4.25;4.25;;;;;23.09;60.94;101370.00;5095734;27;45374;-73
2022/05/20 13:32:28;;;;;;;;;5.75;4.50;;;;;23.01;60.96;101384.38;5096160;27;45330;-75
2022/05/20 13:34:54;;;;;;;;;6.25;4.75;;;;;22.89;61.13;101385.44;5102497;27;45432;-74
2022/05/20 13:37:36;;;;;;;;;8.00;4.50;;;;;22.88;61.40;101394.66;5092105;27;48313;-74
2022/05/20 13:40:25;;;;;;;;;5.00;5.00;;;;;22.98;61.15;101399.16;5096018;27;45363;-74
2022/05/20 13:42:52;;;;;;;;;4.50;4.50;;;;;23.09;60.85;101387.28;5077579;27;45469;-74
2022/05/20 13:45:22;;;;;;;;;4.00;4.00;;;;;23.30;60.27;101403.69;5101426;27;45173;-74
2022/05/20 13:50:32;;;;;;;;;6.00;6.00;;;;;23.34;60.64;101391.44;5096114;27;45527;-75
2022/05/20 13:52:59;;;;;;;;;6.25;3.75;;;;;23.38;60.49;101421.16;5065547;28;45347;-75
2022/05/20 13:55:33;;;;;;;;;6.00;6.00;;;;;23.31;59.51;101435.50;5094398;27;45501;-74
2022/05/20 13:57:59;;;;;;;;;6.50;6.50;;;;;23.14;59.45;101433.41;5095263;27;45372;-73
2022/05/20 14:00:30;;;;;;;;;6.00;6.00;;;;;22.90;59.34;101447.31;5095646;27;45382;-74
2022/05/20 14:03:14;;;;;;;;;7.75;7.00;;;;;22.65;60.10;101460.34;5095612;27;45850;-75
2022/05/20 14:05:50;;;;;;;;;7.75;7.75;;;;;22.53;60.34;101461.41;5095314;27;45328;-74
2022/05/20 14:08:19;;;;;;;;;6.25;6.25;;;;;22.51;59.62;101473.44;5092521;27;45365;-74
2022/05/20 14:10:50;;;;;;;;;8.25;8.25;;;;;22.42;58.88;101482.41;5095489;27;45364;-74
2022/05/20 14:13:28;;;;;;;;;6.50;6.50;;;;;22.38;58.65;101481.78;5095310;27;45357;-72
2022/05/20 14:15:53;;;;;;;;;6.00;6.00;;;;;22.40;58.02;101495.31;5095286;27;45528;-74
2022/05/20 14:18:24;;;;;;;;;6.00;6.00;;;;;22.44;57.40;101515.94;5073078;28;48184;-74
2022/05/20 14:21:15;;;;;;;;;5.50;5.50;;;;;22.10;57.07;101501.47;5069262;27;45396;-74
2022/05/20 14:23:54;;;;;;;;;8.00;6.00;;;;;21.97;57.98;101508.88;5094511;27;45326;-73
2022/05/20 14:26:21;;;;;;;;;6.00;5.25;;;;;21.92;58.16;101516.59;5094817;27;45408;-73
2022/05/20 14:28:54;;;;;;;;;6.00;6.00;;;;;21.74;57.43;101519.81;5094963;27;46309;-73
2022/05/20 14:31:25;;;;;;;;;7.25;6.00;;;;;21.66;57.47;101516.84;5094936;27;45357;-73
2022/05/20 14:33:59;;;;;;;;;9.75;9.75;;;;;21.63;57.44;101518.94;5094980;27;45455;-75
2022/05/20 14:36:24;;;;;;;;;7.50;7.50;;;;;21.59;57.45;101521.06;5094455;27;45553;-74
2022/05/20 14:38:52;;;;;;;;;8.25;7.75;;;;;21.56;56.92;101525.88;5074023;27;47125;-75
2022/05/20 14:41:23;;;;;;;;;9.00;9.00;;;;;21.47;56.69;101528.34;5094821;27;45347;-73
2022/05/20 14:43:53;;;;;;;;;11.00;11.00;;;;;21.29;57.39;101532.53;5076452;27;45777;-75
2022/05/20 14:49:36;;;;;;;;;11.00;11.00;;;;;21.15;58.27;101505.44;5081566;27;45378;-74
2022/05/20 14:52:02;;;;;;;;;14.50;10.50;;;;;21.30;58.08;101536.13;5094859;27;45503;-77
2022/05/20 14:54:42;;;;;;;;;15.50;14.00;;;;;21.21;58.29;101554.06;5095262;27;45417;-76
2022/05/20 14:57:29;;;;;;;;;14.00;14.00;;;;;21.24;58.66;101556.56;5072274;27;45499;-74
2022/05/20 15:00:20;;;;;;;;;18.25;18.00;;;;;21.34;58.37;101559.44;5094356;27;46166;-75
2022/05/20 15:02:48;;;;;;;;;22.75;22.75;;;;;21.28;58.19;101557.19;5073555;28;45359;-77
2022/05/20 15:05:14;;;;;;;;;22.50;22.50;;;;;21.18;58.52;101561.63;5093266;27;45299;-75
2022/05/20 15:07:41;;;;;;;;;26.75;26.00;;;;;21.12;57.63;101591.06;5094270;27;45511;-78
2022/05/20 15:10:19;;;;;;;;;29.75;28.50;;;;;20.94;58.24;101583.41;5076288;27;46968;-77
2022/05/20 15:12:46;;;;;;;;;31.50;26.75;;;;;20.62;58.71;101603.06;5075901;27;45425;-76
2022/05/20 15:15:13;;;;;;;;;31.00;27.50;;;;;20.23;59.65;101590.50;5086191;27;45535;-74
2022/05/20 15:18:05;;;;;;;;;25.25;25.25;;;;;20.40;59.26;101608.38;5088864;27;45462;-79
2022/05/20 15:20:51;;;;;;;;;22.25;21.50;;;;;20.26;58.73;101586.66;5083859;27;45486;-79
2022/05/20 15:23:19;;;;;;;;;28.50;24.50;;;;;20.10;59.17;101595.06;5077972;27;45415;-78
2022/05/20 15:25:48;;;;;;;;;24.75;23.75;;;;;20.20;59.40;101617.94;5094133;27;45343;-76
2022/05/20 15:34:51;;;;;;;;;22.50;22.25;;;;;20.15;58.55;101603.81;5094432;27;45366;-75
2022/05/20 15:36:29;;;;;;;;;25.00;23.75;;;;;20.22;57.98;101636.91;5086438;27;45465;-75
2022/05/20 15:38:55;;;;;;;;;14.75;13.75;;;;;20.17;57.37;101648.09;5097713;27;45310;-76
2022/05/20 15:41:24;;;;;;;;;15.50;15.50;;;;;20.11;57.28;101629.50;5097115;27;45440;-76
2022/05/20 15:43:49;;;;;;;;;15.75;15.25;;;;;20.47;55.76;101657.81;5075862;28;45417;-74
2022/05/20 15:46:15;;;;;;;;;13.25;13.25;;;;;20.82;53.61;101636.13;5088894;27;45342;-77
2022/05/20 15:48:40;;;;;;;;;20.25;20.25;;;;;21.08;52.67;101663.19;5098673;27;45457;-77
2022/05/20 15:51:05;;;;;;;;;13.50;13.00;;;;;21.34;52.40;101657.66;5081055;27;47530;-77
2022/05/20 15:53:31;;;;;;;;;15.25;15.25;;;;;21.43;50.53;101641.44;5097566;27;45401;-80
2022/05/20 15:55:57;;;;;;;;;15.25;15.25;;;;;21.66;51.17;101682.44;5085693;27;45406;-78
2022/05/20 15:58:25;;;;;;;;;15.75;13.00;;;;;21.66;50.56;101685.19;5073702;27;47037;-76
2022/05/20 16:00:52;;;;;;;;;12.00;11.25;;;;;21.45;51.44;101696.75;5097753;27;46176;-75
2022/05/20 16:03:22;;;;;;;;;14.75;11.00;;;;;21.39;51.46;101680.84;5078370;27;45781;-78
2022/05/20 16:05:50;;;;;;;;;14.25;11.25;;;;;21.41;51.53;101694.38;5079524;27;45363;-77
2022/05/20 16:08:18;;;;;;;;;13.75;11.75;;;;;21.27;52.01;101706.31;5081139;27;47137;-80
2022/05/20 16:10:49;;;;;;;;;12.25;10.25;;;;;21.30;51.56;101705.22;5099210;27;45843;-75
2022/05/20 16:13:15;;;;;;;;;6.25;6.00;;;;;21.69;50.46;101720.44;5096703;27;45404;-76
2022/05/20 16:15:41;;;;;;;;;9.50;9.50;;;;;21.79;49.25;101702.34;5096333;27;45413;-75
2022/05/20 16:18:07;;;;;;;;;8.00;8.00;;;;;21.83;49.40;101720.22;5078940;27;45771;-75
2022/05/20 16:20:33;;;;;;;;;7.75;6.25;;;;;21.78;48.67;101717.84;5097161;27;45398;-74
2022/05/20 16:22:59;;;;;;;;;10.50;7.25;;;;;21.74;48.73;101707.28;5096285;27;45535;-75
2022/05/20 16:25:27;;;;;;;;;7.50;7.50;;;;;21.92;48.87;101735.91;5096750;27;45798;-76
2022/05/20 16:27:53;;;;;;;;;7.25;7.25;;;;;21.94;48.43;101731.19;5095427;27;45536;-77
2022/05/20 16:30:21;;;;;;;;;6.00;6.00;;;;;22.00;48.79;101717.09;5097002;27;45439;-76
2022/05/20 16:32:47;;;;;;;;;6.75;5.75;;;;;22.09;48.89;101726.41;5096167;27;46017;-77
2022/05/20 16:35:14;;;;;;;;;5.50;5.00;;;;;22.16;48.71;101731.28;5078990;27;45421;-76
2022/05/20 16:37:40;;;;;;;;;5.25;5.25;;;;;22.34;47.34;101726.22;5096666;27;45336;-76
2022/05/20 16:40:09;;;;;;;;;5.25;5.25;;;;;22.50;46.99;101724.00;5077585;27;47794;-76
2022/05/20 16:42:35;;;;;;;;;6.00;5.00;;;;;22.64;46.85;101739.28;5096597;27;45527;-75
2022/05/20 16:45:00;;;;;;;;;6.00;4.50;;;;;22.62;47.00;101714.81;5077801;27;45634;-75
2022/05/20 16:47:26;;;;;;;;;7.00;4.00;;;;;22.55;46.04;101708.09;5091058;27;45429;-77
2022/05/20 16:49:51;;;;;;;;;4.00;4.00;;;;;22.76;46.75;101721.03;5076444;27;45539;-76
2022/05/20 16:52:18;;;;;;;;;3.75;3.75;;;;;23.07;45.69;101738.53;5095754;27;45437;-76